Time;durP1;ratioP1;P1;durP2;ratioP2;P2;SDS_P1;SDS_P2;PMS_P1;PMS_P2;Temp;Humidity;BMP_temperature;BMP_pressure;BME280_temperature;BME280_humidity;BME280_pressure;Samples;Min_cycle;Max_cycle;Signal;HPM_P1;HPM_P2
2023/08/10 00:01:18;;;;;;;;;10.50;9.25;;;;;-145.10;100.00;63789.38;5035337;28;46277;-74
2023/08/10 00:03:44;;;;;;;;;10.25;10.25;;;;;-145.10;100.00;63789.38;5033254;28;45751;-74
2023/08/10 00:06:10;;;;;;;;;13.00;11.75;;;;;-145.10;100.00;63789.38;5048968;28;59249;-74
2023/08/10 00:08:36;;;;;;;;;11.50;11.00;;;;;-145.10;100.00;63789.38;5033193;28;45600;-75
2023/08/10 00:11:02;;;;;;;;;10.75;9.00;;;;;-145.10;100.00;63789.38;5018786;28;46823;-75
2023/08/10 00:13:27;;;;;;;;;11.75;9.25;;;;;-145.10;100.00;63789.38;5032351;28;45442;-76
2023/08/10 00:15:53;;;;;;;;;9.75;9.75;;;;;-145.10;100.00;63789.38;5019592;28;45562;-75
2023/08/10 00:18:19;;;;;;;;;10.25;9.50;;;;;-145.10;100.00;63789.38;5035257;28;45550;-75
2023/08/10 00:20:44;;;;;;;;;12.00;8.00;;;;;-145.10;100.00;63789.38;5027324;28;46276;-75
2023/08/10 00:23:10;;;;;;;;;10.00;10.00;;;;;-145.10;100.00;63789.38;5018340;28;45286;-75
2023/08/10 00:25:36;;;;;;;;;11.00;10.00;;;;;-145.10;100.00;63789.38;4999417;28;45292;-75
2023/08/10 00:28:01;;;;;;;;;9.25;8.00;;;;;-145.10;100.00;63789.38;5047782;28;45433;-74
2023/08/10 00:30:28;;;;;;;;;10.75;9.75;;;;;-145.10;100.00;63789.38;5038148;28;54917;-75
2023/08/10 00:32:53;;;;;;;;;11.25;10.50;;;;;-145.10;100.00;63789.38;5020793;28;45285;-75
2023/08/10 00:35:18;;;;;;;;;8.50;8.50;;;;;-145.10;100.00;63789.38;5024124;28;45332;-75
2023/08/10 00:37:44;;;;;;;;;13.00;11.00;;;;;-145.10;100.00;63789.38;5037099;28;70175;-75
2023/08/10 00:40:12;;;;;;;;;12.25;9.50;;;;;-145.10;100.00;63789.38;5046088;28;70546;-75
2023/08/10 00:42:38;;;;;;;;;13.00;10.50;;;;;-145.10;100.00;63789.38;5012388;28;46241;-75
2023/08/10 00:45:03;;;;;;;;;14.25;10.50;;;;;-145.10;100.00;63789.38;5039886;28;45407;-75
2023/08/10 00:47:29;;;;;;;;;11.25;10.00;;;;;-145.10;100.00;63789.38;5036700;28;45480;-75
2023/08/10 00:49:54;;;;;;;;;12.50;8.00;;;;;-145.10;100.00;63789.38;5021479;28;75928;-74
2023/08/10 00:52:20;;;;;;;;;12.00;9.00;;;;;-145.10;100.00;63789.38;5040277;28;63030;-75
2023/08/10 00:54:45;;;;;;;;;11.00;10.25;;;;;-145.10;100.00;63789.38;5032312;28;45560;-74
2023/08/10 00:57:11;;;;;;;;;8.00;8.00;;;;;-145.10;100.00;63789.38;5036637;28;67422;-75
2023/08/10 00:59:37;;;;;;;;;10.75;8.00;;;;;-145.10;100.00;63789.38;5038960;28;46377;-75
2023/08/10 01:02:03;;;;;;;;;10.75;8.75;;;;;-145.10;100.00;63789.38;5037236;28;45297;-75
2023/08/10 01:04:29;;;;;;;;;11.50;8.00;;;;;-145.10;100.00;63789.38;5027767;28;45294;-75
2023/08/10 01:07:19;;;;;;;;;9.25;8.50;;;;;-145.10;100.00;63789.38;5033621;28;64353;-75
2023/08/10 01:10:15;;;;;;;;;12.00;9.25;;;;;-145.10;100.00;63789.38;5031031;28;45968;-75
2023/08/10 01:12:49;;;;;;;;;8.00;7.50;;;;;-145.10;100.00;63789.38;5034670;28;45467;-75
2023/08/10 01:15:41;;;;;;;;;8.75;8.75;;;;;-145.10;100.00;63789.38;5032533;28;45457;-75
2023/08/10 01:18:10;;;;;;;;;10.25;10.00;;;;;-145.10;100.00;63789.38;5026677;28;45975;-75
2023/08/10 01:20:36;;;;;;;;;8.75;7.00;;;;;-145.10;100.00;63789.38;5031457;28;45699;-75
2023/08/10 01:23:20;;;;;;;;;10.50;9.00;;;;;-145.10;100.00;63789.38;5022609;28;45893;-75
2023/08/10 01:25:46;;;;;;;;;10.25;7.75;;;;;-145.10;100.00;63789.38;5039665;28;45238;-74
2023/08/10 01:28:15;;;;;;;;;15.75;11.00;;;;;-145.10;100.00;63789.38;5018503;28;45490;-74
2023/08/10 01:30:44;;;;;;;;;13.25;8.75;;;;;-145.10;100.00;63789.38;5024879;28;46201;-76
2023/08/10 01:33:10;;;;;;;;;9.75;8.50;;;;;-145.10;100.00;63789.38;5035170;28;45281;-74
2023/08/10 01:35:36;;;;;;;;;9.25;7.25;;;;;-145.10;100.00;63789.38;5037943;28;45278;-75
2023/08/10 01:38:04;;;;;;;;;10.00;9.00;;;;;-145.10;100.00;63789.38;5020044;28;46040;-74
2023/08/10 01:40:30;;;;;;;;;14.50;8.75;;;;;-145.10;100.00;63789.38;5036858;28;45655;-75
2023/08/10 01:42:56;;;;;;;;;10.00;10.00;;;;;-145.10;100.00;63789.38;5034129;28;45333;-74
2023/08/10 01:45:22;;;;;;;;;10.00;8.75;;;;;-145.10;100.00;63789.38;5037718;28;45424;-75
2023/08/10 01:48:09;;;;;;;;;8.00;8.00;;;;;-145.10;100.00;63789.38;5038572;28;45503;-74
2023/08/10 01:50:37;;;;;;;;;7.00;3.50;;;;;-145.10;100.00;63789.38;5021045;28;48159;-75
2023/08/10 01:53:05;;;;;;;;;8.50;5.50;;;;;-145.10;100.00;63789.38;5053154;28;45263;-74
2023/08/10 01:55:31;;;;;;;;;8.50;7.25;;;;;-145.10;100.00;63789.38;5028166;28;45452;-74
2023/08/10 01:58:00;;;;;;;;;13.50;10.00;;;;;-145.10;100.00;63789.38;5038101;28;45584;-74
2023/08/10 02:00:25;;;;;;;;;9.00;8.00;;;;;-145.10;100.00;63789.38;5020274;28;48197;-73
2023/08/10 02:02:51;;;;;;;;;10.50;9.00;;;;;-145.10;100.00;63789.38;5053806;28;66312;-74
2023/08/10 02:05:16;;;;;;;;;12.00;9.25;;;;;-145.10;100.00;63789.38;5029940;28;45197;-74
2023/08/10 02:07:42;;;;;;;;;15.50;10.25;;;;;-145.10;100.00;63789.38;5038348;28;45645;-74
2023/08/10 02:10:09;;;;;;;;;13.00;9.25;;;;;-145.10;100.00;63789.38;5037685;28;45352;-75
2023/08/10 02:12:35;;;;;;;;;10.75;9.25;;;;;-145.10;100.00;63789.38;5037388;28;45391;-75
2023/08/10 02:15:01;;;;;;;;;10.75;9.00;;;;;-145.10;100.00;63789.38;5048250;28;45418;-75
2023/08/10 02:17:28;;;;;;;;;8.50;7.75;;;;;-145.10;100.00;63789.38;5055747;28;45351;-75
2023/08/10 02:19:54;;;;;;;;;8.75;7.00;;;;;-145.10;100.00;63789.38;5027738;28;45543;-75
2023/08/10 02:22:20;;;;;;;;;15.75;10.00;;;;;-145.10;100.00;63789.38;5033775;28;69358;-74
2023/08/10 02:24:45;;;;;;;;;13.75;9.25;;;;;-145.10;100.00;63789.38;5026694;28;45470;-74
2023/08/10 02:27:10;;;;;;;;;10.00;8.25;;;;;-145.10;100.00;63789.38;5038496;28;61938;-74
2023/08/10 02:29:36;;;;;;;;;6.50;6.50;;;;;-145.10;100.00;63789.38;5037998;28;71932;-74
2023/08/10 02:32:01;;;;;;;;;9.25;9.25;;;;;-145.10;100.00;63789.38;5037185;28;45184;-75
2023/08/10 02:34:27;;;;;;;;;15.00;11.50;;;;;-145.10;100.00;63789.38;5042770;28;45461;-75
2023/08/10 02:36:53;;;;;;;;;10.00;8.50;;;;;-145.10;100.00;63789.38;5019764;28;45431;-75
2023/08/10 02:39:18;;;;;;;;;6.25;6.25;;;;;-145.10;100.00;63789.38;5031706;28;50611;-75
2023/08/10 02:41:44;;;;;;;;;8.25;6.25;;;;;-145.10;100.00;63789.38;5037542;28;45411;-75
2023/08/10 02:44:09;;;;;;;;;7.00;7.00;;;;;-145.10;100.00;63789.38;5038802;28;45597;-75
2023/08/10 02:46:35;;;;;;;;;5.75;5.25;;;;;-145.10;100.00;63789.38;5032902;28;65498;-75
2023/08/10 02:49:00;;;;;;;;;7.75;7.50;;;;;-145.10;100.00;63789.38;5049015;28;65359;-75
2023/08/10 02:51:25;;;;;;;;;10.25;7.75;;;;;-145.10;100.00;63789.38;5017280;28;61605;-75
2023/08/10 02:53:51;;;;;;;;;10.25;8.25;;;;;-145.10;100.00;63789.38;5025628;28;52285;-75
2023/08/10 02:56:16;;;;;;;;;11.00;9.25;;;;;-145.10;100.00;63789.38;5020059;28;60460;-75
2023/08/10 02:58:42;;;;;;;;;8.75;6.25;;;;;-145.10;100.00;63789.38;5037501;28;45490;-75
2023/08/10 03:01:07;;;;;;;;;11.00;9.00;;;;;-145.10;100.00;63789.38;5032074;28;45522;-75
2023/08/10 03:03:33;;;;;;;;;9.00;8.00;;;;;-145.10;100.00;63789.38;5032738;28;45439;-74
2023/08/10 03:05:59;;;;;;;;;8.75;8.50;;;;;-145.10;100.00;63789.38;5029398;28;45589;-75
2023/08/10 03:08:25;;;;;;;;;14.75;10.75;;;;;-145.10;100.00;63789.38;5034051;28;46330;-75
2023/08/10 03:10:50;;;;;;;;;13.50;9.75;;;;;-145.10;100.00;63789.38;5040249;28;45234;-74
2023/08/10 03:13:15;;;;;;;;;9.00;8.50;;;;;-145.10;100.00;63789.38;5033386;28;45497;-75
2023/08/10 03:15:41;;;;;;;;;11.50;11.50;;;;;-145.10;100.00;63789.38;5035765;28;69175;-75
2023/08/10 03:18:06;;;;;;;;;9.25;9.25;;;;;-145.10;100.00;63789.38;5036217;28;64351;-75
2023/08/10 03:20:31;;;;;;;;;11.75;10.00;;;;;-145.10;100.00;63789.38;5034394;28;57134;-75
2023/08/10 03:22:57;;;;;;;;;9.25;9.00;;;;;-145.10;100.00;63789.38;5009831;28;45269;-76
2023/08/10 03:25:22;;;;;;;;;11.25;9.25;;;;;-145.10;100.00;63789.38;5034089;28;45874;-75
2023/08/10 03:27:47;;;;;;;;;13.50;8.50;;;;;-145.10;100.00;63789.38;5021973;28;45288;-75
2023/08/10 03:30:13;;;;;;;;;12.25;10.50;;;;;-145.10;100.00;63789.38;5031543;28;70571;-75
2023/08/10 03:32:40;;;;;;;;;9.75;9.00;;;;;-145.10;100.00;63789.38;5037955;28;45569;-75
2023/08/10 03:35:05;;;;;;;;;9.00;8.00;;;;;-145.10;100.00;63789.38;5041982;28;45498;-75
2023/08/10 03:37:30;;;;;;;;;8.75;6.50;;;;;-145.10;100.00;63789.38;5013387;28;47270;-75
2023/08/10 03:39:56;;;;;;;;;8.25;7.00;;;;;-145.10;100.00;63789.38;5016003;28;59660;-75
2023/08/10 03:42:21;;;;;;;;;8.50;7.00;;;;;-145.10;100.00;63789.38;5031360;28;45458;-75
2023/08/10 03:44:47;;;;;;;;;7.75;7.00;;;;;-145.10;100.00;63789.38;5036486;28;45505;-75
2023/08/10 03:47:15;;;;;;;;;10.75;9.75;;;;;-145.10;100.00;63789.38;5034300;28;68490;-76
2023/08/10 03:49:40;;;;;;;;;8.50;7.75;;;;;-145.10;100.00;63789.38;5017459;28;45376;-75
2023/08/10 03:52:05;;;;;;;;;9.25;8.50;;;;;-145.10;100.00;63789.38;5037723;28;59464;-75
2023/08/10 03:54:31;;;;;;;;;6.00;6.00;;;;;-145.10;100.00;63789.38;5026139;28;45273;-75
2023/08/10 03:56:59;;;;;;;;;8.25;6.75;;;;;-145.10;100.00;63789.38;5032428;28;46076;-75
2023/08/10 03:59:24;;;;;;;;;13.50;7.50;;;;;-145.10;100.00;63789.38;5037291;28;45817;-75
2023/08/10 04:01:49;;;;;;;;;7.25;7.00;;;;;-145.10;100.00;63789.38;5034991;28;50460;-76
2023/08/10 04:04:15;;;;;;;;;7.50;6.00;;;;;-145.10;100.00;63789.38;5034321;28;52224;-74
2023/08/10 04:06:40;;;;;;;;;7.00;6.50;;;;;-145.10;100.00;63789.38;5052687;28;46026;-75
2023/08/10 04:09:06;;;;;;;;;7.00;7.00;;;;;-145.10;100.00;63789.38;5028173;28;70185;-74
2023/08/10 04:11:31;;;;;;;;;7.50;6.75;;;;;-145.10;100.00;63789.38;5037282;28;45249;-75
2023/08/10 04:13:57;;;;;;;;;10.00;8.00;;;;;-145.10;100.00;63789.38;5032234;28;71201;-75
2023/08/10 04:16:22;;;;;;;;;5.00;4.00;;;;;-145.10;100.00;63789.38;5037533;28;72277;-75
2023/08/10 04:18:48;;;;;;;;;9.00;7.00;;;;;-145.10;100.00;63789.38;5033118;28;64129;-75
2023/08/10 04:21:13;;;;;;;;;8.75;7.75;;;;;-145.10;100.00;63789.38;5031799;28;45517;-75
2023/08/10 04:23:40;;;;;;;;;7.50;6.00;;;;;-145.10;100.00;63789.38;5031794;28;50647;-75
2023/08/10 04:26:07;;;;;;;;;6.25;6.25;;;;;-145.10;100.00;63789.38;5046392;28;45240;-75
2023/08/10 04:28:32;;;;;;;;;7.00;6.00;;;;;-145.10;100.00;63789.38;5034631;28;45395;-75
2023/08/10 04:30:58;;;;;;;;;7.00;7.00;;;;;-145.10;100.00;63789.38;5037310;28;45337;-75
2023/08/10 04:33:23;;;;;;;;;7.00;7.00;;;;;-145.10;100.00;63789.38;5042575;28;45744;-75
2023/08/10 04:35:49;;;;;;;;;10.50;7.25;;;;;-145.10;100.00;63789.38;5024456;28;46321;-75
2023/08/10 04:38:14;;;;;;;;;9.25;7.00;;;;;-145.10;100.00;63789.38;5020872;28;45731;-75
2023/08/10 04:40:41;;;;;;;;;7.50;7.00;;;;;-145.10;100.00;63789.38;5027927;28;45439;-75
2023/08/10 04:43:06;;;;;;;;;8.00;7.00;;;;;-145.10;100.00;63789.38;5035077;28;45254;-75
2023/08/10 04:45:31;;;;;;;;;10.00;7.00;;;;;-145.10;100.00;63789.38;5017526;28;59371;-74
2023/08/10 04:47:57;;;;;;;;;7.25;5.75;;;;;-145.10;100.00;63789.38;5036078;28;49067;-75
2023/08/10 04:50:23;;;;;;;;;8.50;6.00;;;;;-145.10;100.00;63789.38;5039528;28;45411;-75
2023/08/10 04:52:48;;;;;;;;;8.75;6.75;;;;;-145.10;100.00;63789.38;5032794;28;45450;-75
2023/08/10 04:55:14;;;;;;;;;7.50;7.50;;;;;-145.10;100.00;63789.38;5033112;28;45669;-75
2023/08/10 04:57:39;;;;;;;;;9.50;6.25;;;;;-145.10;100.00;63789.38;5020790;28;45332;-75
2023/08/10 05:00:09;;;;;;;;;6.75;6.00;;;;;-145.10;100.00;63789.38;5038370;28;57448;-75
2023/08/10 05:02:35;;;;;;;;;7.50;7.50;;;;;-145.10;100.00;63789.38;5034773;28;45387;-74
2023/08/10 05:05:02;;;;;;;;;6.00;6.00;;;;;-145.10;100.00;63789.38;5030587;28;45518;-75
2023/08/10 05:07:28;;;;;;;;;7.25;6.25;;;;;-145.10;100.00;63789.38;5031983;28;45482;-75
2023/08/10 05:09:53;;;;;;;;;11.50;7.00;;;;;-145.10;100.00;63789.38;5035736;28;52989;-75
2023/08/10 05:12:18;;;;;;;;;8.00;6.00;;;;;-145.10;100.00;63789.38;5031334;28;48444;-75
2023/08/10 05:14:44;;;;;;;;;10.50;7.00;;;;;-145.10;100.00;63789.38;5033045;28;48576;-74
2023/08/10 05:17:10;;;;;;;;;7.50;7.25;;;;;-145.10;100.00;63789.38;5020922;28;63381;-76
2023/08/10 05:19:35;;;;;;;;;8.25;8.00;;;;;-145.10;100.00;63789.38;5042179;28;45311;-75
2023/08/10 05:22:01;;;;;;;;;13.25;6.75;;;;;-145.10;100.00;63789.38;5042490;28;45582;-75
2023/08/10 05:24:27;;;;;;;;;8.75;6.75;;;;;-145.10;100.00;63789.38;5032836;28;47097;-75
2023/08/10 05:26:52;;;;;;;;;11.25;6.75;;;;;-145.10;100.00;63789.38;5035322;28;61594;-74
2023/08/10 05:29:17;;;;;;;;;9.75;8.75;;;;;-145.10;100.00;63789.38;5022637;28;45478;-75
2023/08/10 05:31:43;;;;;;;;;8.50;7.75;;;;;-145.10;100.00;63789.38;5052117;28;45489;-74
2023/08/10 05:34:08;;;;;;;;;8.25;8.25;;;;;-145.10;100.00;63789.38;5036228;28;50327;-74
2023/08/10 05:36:34;;;;;;;;;10.75;8.75;;;;;-145.10;100.00;63789.38;5031398;28;45434;-74
2023/08/10 05:38:59;;;;;;;;;11.50;8.00;;;;;-145.10;100.00;63789.38;5030959;28;45480;-75
2023/08/10 05:41:24;;;;;;;;;10.50;8.75;;;;;-145.10;100.00;63789.38;5015490;28;45722;-75
2023/08/10 05:43:50;;;;;;;;;10.75;8.25;;;;;-145.10;100.00;63789.38;5024230;28;56980;-75
2023/08/10 05:46:31;;;;;;;;;9.75;8.25;;;;;-145.10;100.00;63789.38;5024344;28;45405;-74
2023/08/10 05:48:56;;;;;;;;;8.50;7.00;;;;;-145.10;100.00;63789.38;5051807;28;45635;-73
2023/08/10 05:51:22;;;;;;;;;10.00;9.00;;;;;-145.10;100.00;63789.38;5023636;28;45496;-79
2023/08/10 05:53:47;;;;;;;;;15.25;8.75;;;;;-145.10;100.00;63789.38;5038048;28;46860;-86
2023/08/10 05:56:12;;;;;;;;;13.00;10.25;;;;;-145.10;100.00;63789.38;5033996;28;64806;-87
2023/08/10 05:58:38;;;;;;;;;11.50;8.50;;;;;-145.10;100.00;63789.38;5029771;28;60043;-86
2023/08/10 06:01:03;;;;;;;;;11.50;9.25;;;;;-145.10;100.00;63789.38;5035967;28;53524;-83
2023/08/10 06:03:29;;;;;;;;;12.50;8.50;;;;;-145.10;100.00;63789.38;5034855;28;46260;-85
2023/08/10 06:05:54;;;;;;;;;8.00;8.00;;;;;-145.10;100.00;63789.38;5040735;28;45249;-86
2023/08/10 06:08:20;;;;;;;;;11.75;9.00;;;;;-145.10;100.00;63789.38;5033792;28;45967;-86
2023/08/10 06:10:49;;;;;;;;;12.00;10.25;;;;;-145.10;100.00;63789.38;5032458;28;45349;-86
2023/08/10 06:13:14;;;;;;;;;13.00;8.00;;;;;-145.10;100.00;63789.38;5040851;28;47034;-83
2023/08/10 06:15:40;;;;;;;;;8.00;8.00;;;;;-145.10;100.00;63789.38;5029521;28;45526;-81
2023/08/10 06:18:05;;;;;;;;;8.25;7.75;;;;;-145.10;100.00;63789.38;5026522;28;54148;-85
2023/08/10 06:20:34;;;;;;;;;9.50;8.00;;;;;-145.10;100.00;63789.38;5036671;28;45455;-86
2023/08/10 06:23:00;;;;;;;;;10.75;9.00;;;;;-145.10;100.00;63789.38;5021186;28;46766;-84
2023/08/10 06:25:26;;;;;;;;;15.00;9.00;;;;;-145.10;100.00;63789.38;5035250;28;45328;-84
2023/08/10 06:27:51;;;;;;;;;10.00;7.50;;;;;-145.10;100.00;63789.38;5035332;28;45466;-83
2023/08/10 06:30:17;;;;;;;;;8.50;7.00;;;;;-145.10;100.00;63789.38;5035804;28;45410;-75
2023/08/10 06:32:43;;;;;;;;;9.00;7.50;;;;;-145.10;100.00;63789.38;5052984;28;45477;-78
2023/08/10 06:35:09;;;;;;;;;9.00;7.50;;;;;-145.10;100.00;63789.38;5035798;28;45426;-79
2023/08/10 06:37:35;;;;;;;;;8.00;8.00;;;;;-145.10;100.00;63789.38;5020088;28;45450;-82
2023/08/10 06:40:00;;;;;;;;;9.50;9.00;;;;;-145.10;100.00;63789.38;5022296;28;45250;-80
2023/08/10 06:42:26;;;;;;;;;11.50;8.25;;;;;-145.10;100.00;63789.38;5013016;28;45249;-80
2023/08/10 06:44:51;;;;;;;;;12.75;10.50;;;;;-145.10;100.00;63789.38;5026216;28;45396;-79
2023/08/10 06:47:16;;;;;;;;;8.25;7.75;;;;;-145.10;100.00;63789.38;5032742;28;59648;-79
2023/08/10 06:49:45;;;;;;;;;8.00;6.50;;;;;-145.10;100.00;63789.38;5028173;28;59988;-83
2023/08/10 06:52:10;;;;;;;;;8.50;6.50;;;;;-145.10;100.00;63789.38;5026230;28;51596;-84
2023/08/10 06:54:35;;;;;;;;;11.75;7.50;;;;;-145.10;100.00;63789.38;5025743;28;45496;-84
2023/08/10 06:57:01;;;;;;;;;7.00;7.00;;;;;-145.10;100.00;63789.38;5042120;28;45296;-76
2023/08/10 06:59:26;;;;;;;;;9.50;5.50;;;;;-145.10;100.00;63789.38;5036823;28;45954;-77
2023/08/10 07:01:51;;;;;;;;;7.75;7.25;;;;;-145.10;100.00;63789.38;5035797;28;66764;-78
2023/08/10 07:04:17;;;;;;;;;8.25;7.00;;;;;-145.10;100.00;63789.38;5050161;28;45351;-77
2023/08/10 07:06:43;;;;;;;;;10.75;7.50;;;;;-145.10;100.00;63789.38;5019555;28;45328;-77
2023/08/10 07:09:09;;;;;;;;;9.75;8.25;;;;;-145.10;100.00;63789.38;5036328;28;45399;-76
2023/08/10 07:11:35;;;;;;;;;9.50;8.50;;;;;-145.10;100.00;63789.38;5035969;28;45327;-75
2023/08/10 07:14:01;;;;;;;;;7.75;7.00;;;;;-145.10;100.00;63789.38;5037136;28;45344;-76
2023/08/10 07:16:26;;;;;;;;;13.00;6.75;;;;;-145.10;100.00;63789.38;5011665;28;45304;-77
2023/08/10 07:18:52;;;;;;;;;6.75;5.75;;;;;-145.10;100.00;63789.38;5055708;28;45465;-76
2023/08/10 07:21:17;;;;;;;;;7.00;7.00;;;;;-145.10;100.00;63789.38;5061618;28;66196;-77
2023/08/10 07:23:42;;;;;;;;;8.25;7.00;;;;;-145.10;100.00;63789.38;5041429;28;46202;-76
2023/08/10 07:26:08;;;;;;;;;8.00;6.00;;;;;-145.10;100.00;63789.38;5057345;28;45272;-77
2023/08/10 07:28:33;;;;;;;;;10.00;8.25;;;;;-145.10;100.00;63789.38;5039747;28;45234;-76
2023/08/10 07:31:02;;;;;;;;;6.00;6.00;;;;;-145.10;100.00;63789.38;5041708;28;46344;-77
2023/08/10 07:33:28;;;;;;;;;9.50;6.00;;;;;-145.10;100.00;63789.38;5039693;28;45629;-76
2023/08/10 07:35:54;;;;;;;;;7.50;6.00;;;;;-145.10;100.00;63789.38;5025048;28;45403;-77
2023/08/10 07:38:19;;;;;;;;;5.25;5.25;;;;;-145.10;100.00;63789.38;5031843;28;45444;-77
2023/08/10 07:40:44;;;;;;;;;8.00;5.25;;;;;-145.10;100.00;63789.38;5038534;28;46513;-77
2023/08/10 07:43:10;;;;;;;;;5.00;5.00;;;;;-145.10;100.00;63789.38;5038645;28;45301;-76
2023/08/10 07:45:36;;;;;;;;;9.25;8.50;;;;;-145.10;100.00;63789.38;5038029;28;45317;-76
2023/08/10 07:48:01;;;;;;;;;6.50;5.75;;;;;-145.10;100.00;63789.38;5037347;28;45444;-77
2023/08/10 07:50:27;;;;;;;;;7.75;7.00;;;;;-145.10;100.00;63789.38;5026468;28;46328;-77
2023/08/10 07:52:53;;;;;;;;;6.75;5.25;;;;;-145.10;100.00;63789.38;5036591;28;45254;-76
2023/08/10 07:55:18;;;;;;;;;7.25;6.25;;;;;-145.10;100.00;63789.38;5038586;28;45217;-77
2023/08/10 07:57:43;;;;;;;;;8.25;6.75;;;;;-145.10;100.00;63789.38;5027452;28;45281;-77
2023/08/10 08:00:10;;;;;;;;;4.00;4.00;;;;;-145.10;100.00;63789.38;5039973;28;50520;-73
2023/08/10 08:02:36;;;;;;;;;7.00;6.00;;;;;-145.10;100.00;63789.38;5039382;28;45368;-76
2023/08/10 08:05:02;;;;;;;;;8.75;6.00;;;;;-145.10;100.00;63789.38;5039189;28;45427;-76
2023/08/10 08:07:30;;;;;;;;;7.75;4.25;;;;;-145.10;100.00;63789.38;5036121;28;45397;-76
2023/08/10 08:09:57;;;;;;;;;4.50;4.50;;;;;-145.10;100.00;63789.38;5033993;28;45680;-76
2023/08/10 08:12:22;;;;;;;;;7.25;5.75;;;;;-145.10;100.00;63789.38;5037950;28;45735;-76
2023/08/10 08:14:48;;;;;;;;;5.00;5.00;;;;;-145.10;100.00;63789.38;5038993;28;45431;-76
2023/08/10 08:17:13;;;;;;;;;6.00;5.25;;;;;-145.10;100.00;63789.38;5036703;28;71668;-76
2023/08/10 08:19:39;;;;;;;;;9.00;6.00;;;;;-145.10;100.00;63789.38;5037893;28;45351;-77
2023/08/10 08:22:04;;;;;;;;;7.50;5.75;;;;;-145.10;100.00;63789.38;5052557;28;45253;-76
2023/08/10 08:24:30;;;;;;;;;7.50;6.00;;;;;-145.10;100.00;63789.38;5039163;28;45380;-77
2023/08/10 08:26:56;;;;;;;;;5.25;5.25;;;;;-145.10;100.00;63789.38;5030740;28;63100;-76
2023/08/10 08:29:22;;;;;;;;;3.25;1.00;;;;;-145.10;100.00;63789.38;5047976;28;46326;-76
2023/08/10 08:31:47;;;;;;;;;6.00;6.00;;;;;-145.10;100.00;63789.38;5038152;28;45762;-77
2023/08/10 08:34:14;;;;;;;;;7.00;7.00;;;;;-145.10;100.00;63789.38;5018462;28;53462;-76
2023/08/10 08:36:41;;;;;;;;;6.25;5.25;;;;;-145.10;100.00;63789.38;5051325;28;45561;-78
2023/08/10 08:39:06;;;;;;;;;6.25;5.25;;;;;-145.10;100.00;63789.38;5035425;28;46163;-77
2023/08/10 08:41:37;;;;;;;;;8.00;5.50;;;;;-145.10;100.00;63789.38;5054701;28;45395;-76
2023/08/10 08:44:04;;;;;;;;;5.75;3.75;;;;;-145.10;100.00;63789.38;5019677;28;45302;-76
2023/08/10 08:46:32;;;;;;;;;5.75;5.75;;;;;-145.10;100.00;63789.38;5035218;28;45996;-76
2023/08/10 08:48:57;;;;;;;;;5.00;5.00;;;;;-145.10;100.00;63789.38;5039817;28;46415;-76
2023/08/10 08:51:23;;;;;;;;;4.75;4.75;;;;;-145.10;100.00;63789.38;5040761;28;45270;-76
2023/08/10 08:53:50;;;;;;;;;5.75;4.00;;;;;-145.10;100.00;63789.38;5022075;28;45371;-75
2023/08/10 08:56:15;;;;;;;;;7.00;5.00;;;;;-145.10;100.00;63789.38;5020364;28;45405;-76
2023/08/10 08:58:40;;;;;;;;;4.75;4.25;;;;;-145.10;100.00;63789.38;5032127;28;65002;-76
2023/08/10 09:01:08;;;;;;;;;5.25;4.50;;;;;-145.10;100.00;63789.38;5027108;28;66585;-76
2023/08/10 09:03:33;;;;;;;;;5.50;5.00;;;;;-145.10;100.00;63789.38;5045305;28;45423;-76
2023/08/10 09:06:00;;;;;;;;;5.75;5.50;;;;;-145.10;100.00;63789.38;5028299;28;45459;-76
2023/08/10 09:08:26;;;;;;;;;6.25;5.25;;;;;-145.10;100.00;63789.38;5024135;28;45535;-76
2023/08/10 09:10:51;;;;;;;;;4.50;4.50;;;;;-145.10;100.00;63789.38;5024827;28;45512;-76
2023/08/10 09:13:19;;;;;;;;;4.00;4.00;;;;;-145.10;100.00;63789.38;5041426;28;45204;-76
2023/08/10 09:15:45;;;;;;;;;5.00;4.25;;;;;-145.10;100.00;63789.38;5040032;28;45583;-76
2023/08/10 09:18:10;;;;;;;;;6.00;4.50;;;;;-145.10;100.00;63789.38;5023145;28;46610;-75
2023/08/10 09:20:36;;;;;;;;;5.75;4.00;;;;;-145.10;100.00;63789.38;5041141;28;45345;-76
2023/08/10 09:23:05;;;;;;;;;3.75;3.00;;;;;-145.10;100.00;63789.38;5040276;28;45337;-76
2023/08/10 09:25:36;;;;;;;;;5.50;4.00;;;;;-145.10;100.00;63789.38;5040987;28;45536;-76
2023/08/10 09:28:09;;;;;;;;;3.50;3.25;;;;;-145.10;100.00;63789.38;5023888;28;47378;-76
2023/08/10 09:30:34;;;;;;;;;6.00;3.25;;;;;-145.10;100.00;63789.38;5040897;28;45664;-75
2023/08/10 09:33:00;;;;;;;;;3.25;3.25;;;;;-145.10;100.00;63789.38;5039373;28;45517;-76
2023/08/10 09:35:29;;;;;;;;;6.50;3.25;;;;;-145.10;100.00;63789.38;5029012;28;45709;-75
2023/08/10 09:38:00;;;;;;;;;4.25;3.25;;;;;-145.10;100.00;63789.38;5038712;28;45884;-76
2023/08/10 09:40:26;;;;;;;;;3.25;3.25;;;;;-145.10;100.00;63789.38;5040581;28;45809;-75
2023/08/10 09:42:51;;;;;;;;;3.75;3.75;;;;;-145.10;100.00;63789.38;5038882;28;45367;-76
2023/08/10 09:45:17;;;;;;;;;3.50;3.25;;;;;-145.10;100.00;63789.38;5023243;28;69607;-76
2023/08/10 09:47:43;;;;;;;;;4.00;3.25;;;;;-145.10;100.00;63789.38;5038477;28;45913;-76
2023/08/10 09:50:13;;;;;;;;;5.00;3.00;;;;;-145.10;100.00;63789.38;5040271;28;45657;-76
2023/08/10 09:52:40;;;;;;;;;2.75;2.50;;;;;-145.10;100.00;63789.38;5036241;28;45218;-76
2023/08/10 09:55:07;;;;;;;;;3.00;3.00;;;;;-145.10;100.00;63789.38;5020237;28;45860;-76
2023/08/10 09:57:33;;;;;;;;;4.00;4.00;;;;;-145.10;100.00;63789.38;5005666;28;47082;-76
2023/08/10 09:59:58;;;;;;;;;3.25;2.75;;;;;-145.10;100.00;63789.38;5036823;28;45292;-77
2023/08/10 10:02:24;;;;;;;;;3.25;2.75;;;;;-145.10;100.00;63789.38;5021309;28;45516;-76
2023/08/10 10:04:50;;;;;;;;;3.50;2.75;;;;;-145.10;100.00;63789.38;5021179;28;45546;-76
2023/08/10 10:07:23;;;;;;;;;4.25;3.25;;;;;-145.10;100.00;63789.38;5022822;28;47006;-76
2023/08/10 10:09:49;;;;;;;;;5.50;3.00;;;;;-145.10;100.00;63789.38;5030431;28;45809;-76
2023/08/10 10:12:15;;;;;;;;;4.00;4.00;;;;;-145.10;100.00;63789.38;5040601;28;45478;-77
2023/08/10 10:14:45;;;;;;;;;7.00;2.50;;;;;-145.10;100.00;63789.38;5036867;28;45333;-76
2023/08/10 10:17:12;;;;;;;;;3.50;3.50;;;;;-145.10;100.00;63789.38;5039674;28;45699;-76
2023/08/10 10:19:38;;;;;;;;;5.25;3.00;;;;;-145.10;100.00;63789.38;5040173;28;45438;-76
2023/08/10 10:22:04;;;;;;;;;3.50;3.50;;;;;-145.10;100.00;63789.38;5019845;28;45515;-76
2023/08/10 10:24:32;;;;;;;;;5.00;4.00;;;;;-145.10;100.00;63789.38;5022869;28;45391;-76
2023/08/10 10:26:59;;;;;;;;;6.25;5.00;;;;;-145.10;100.00;63789.38;5034892;28;46360;-76
2023/08/10 10:29:36;;;;;;;;;6.00;3.50;;;;;-145.10;100.00;63789.38;5028748;28;45610;-77
2023/08/10 10:32:23;;;;;;;;;3.00;2.00;;;;;-145.10;100.00;63789.38;5041189;28;45392;-77
2023/08/10 10:34:51;;;;;;;;;6.00;5.00;;;;;-145.10;100.00;63789.38;5023050;28;45475;-76
2023/08/10 10:37:26;;;;;;;;;6.75;5.75;;;;;-145.10;100.00;63789.38;5038145;28;45375;-75
2023/08/10 10:39:52;;;;;;;;;5.50;4.25;;;;;-145.10;100.00;63789.38;5038310;28;45198;-76
2023/08/10 10:42:18;;;;;;;;;5.00;3.25;;;;;-145.10;100.00;63789.38;5039290;28;45363;-76
2023/08/10 10:45:14;;;;;;;;;7.00;4.00;;;;;-145.10;100.00;63789.38;5012066;28;45392;-76
2023/08/10 10:47:40;;;;;;;;;3.00;3.00;;;;;-145.10;100.00;63789.38;5023421;28;47525;-75
2023/08/10 10:50:20;;;;;;;;;4.00;2.75;;;;;-145.10;100.00;63789.38;5039610;28;45826;-76
2023/08/10 10:52:54;;;;;;;;;5.75;2.00;;;;;-145.10;100.00;63789.38;5022562;28;45347;-76
2023/08/10 10:55:20;;;;;;;;;3.50;3.00;;;;;-145.10;100.00;63789.38;5053919;28;45987;-76
2023/08/10 10:57:48;;;;;;;;;4.75;3.50;;;;;-145.10;100.00;63789.38;5032504;28;46163;-76
2023/08/10 11:00:14;;;;;;;;;8.00;8.00;;;;;-145.10;100.00;63789.38;5027272;28;45276;-76
2023/08/10 11:02:39;;;;;;;;;7.00;5.75;;;;;-145.10;100.00;63789.38;5022687;28;45468;-77
2023/08/10 11:05:17;;;;;;;;;5.25;3.00;;;;;-145.10;100.00;63789.38;5039840;28;63814;-77